Time;durP1;ratioP1;P1;durP2;ratioP2;P2;SDS_P1;SDS_P2;PMS_P1;PMS_P2;Temp;Humidity;BMP_temperature;BMP_pressure;BME280_temperature;BME280_humidity;BME280_pressure;Samples;Min_cycle;Max_cycle;Signal;HPM_P1;HPM_P2
2023/12/24 00:01:13;;;;;;;3.00;2.80;;;;;;;20.48;51.14;97075.13;4966710;28;20211;-30
2023/12/24 00:03:39;;;;;;;3.20;2.90;;;;;;;20.49;51.02;97087.09;4972017;28;20215;-26
2023/12/24 00:06:07;;;;;;;3.63;3.27;;;;;;;20.49;51.05;97081.97;4990125;28;20229;-26
2023/12/24 00:08:35;;;;;;;3.30;3.00;;;;;;;20.50;51.10;97076.03;4978624;28;20235;-27
2023/12/24 00:11:02;;;;;;;3.23;2.70;;;;;;;20.49;50.99;97080.28;4982338;28;20207;-28
2023/12/24 00:13:28;;;;;;;3.63;2.93;;;;;;;20.50;51.26;97076.03;4967692;28;20612;-27
2023/12/24 00:15:55;;;;;;;3.40;3.10;;;;;;;20.50;51.15;97083.69;4978996;28;20419;-26
2023/12/24 00:18:21;;;;;;;3.43;2.70;;;;;;;20.50;51.11;97078.59;4976355;28;20199;-27
2023/12/24 00:20:48;;;;;;;2.83;2.60;;;;;;;20.50;51.37;97083.69;4970055;28;20207;-27
2023/12/24 00:23:15;;;;;;;3.10;2.90;;;;;;;20.50;51.28;97091.38;4979573;28;20306;-26
2023/12/24 00:25:41;;;;;;;3.20;2.93;;;;;;;20.49;51.32;97085.38;4970866;28;20199;-26
2023/12/24 00:28:08;;;;;;;3.33;3.00;;;;;;;20.50;51.21;97086.25;4981293;28;20247;-26
2023/12/24 00:30:35;;;;;;;3.30;3.00;;;;;;;20.50;51.19;97086.25;4973469;28;20206;-26
2023/12/24 00:33:02;;;;;;;3.30;3.00;;;;;;;20.49;51.10;97080.28;4976627;28;20227;-28
2023/12/24 00:35:31;;;;;;;3.03;2.80;;;;;;;20.50;51.12;97084.56;4970443;28;20204;-28
2023/12/24 00:37:58;;;;;;;3.30;3.00;;;;;;;20.49;51.11;97084.53;4973685;28;20200;-27
2023/12/24 00:40:25;;;;;;;3.43;2.97;;;;;;;20.50;51.04;97096.47;4973351;28;20215;-26
2023/12/24 00:42:52;;;;;;;2.80;2.60;;;;;;;20.51;50.83;97095.63;4977147;28;20310;-26
2023/12/24 00:45:19;;;;;;;3.30;3.00;;;;;;;20.51;50.87;97099.06;4966292;28;20275;-27
2023/12/24 00:47:45;;;;;;;2.90;2.60;;;;;;;20.50;51.17;97092.25;4973445;28;20228;-27
2023/12/24 00:50:13;;;;;;;2.60;2.40;;;;;;;20.49;51.29;97095.59;4963839;28;20231;-32
2023/12/24 00:52:39;;;;;;;2.70;2.50;;;;;;;20.47;51.17;97093.84;4975381;28;20605;-27
2023/12/24 00:55:06;;;;;;;2.90;2.70;;;;;;;20.50;50.97;97099.03;4978905;28;20628;-27
2023/12/24 00:57:33;;;;;;;2.70;2.50;;;;;;;20.52;50.96;97112.69;4974533;28;20269;-29
2023/12/24 00:59:59;;;;;;;3.00;2.70;;;;;;;20.51;51.06;97108.41;4984471;28;20663;-28
2023/12/24 01:02:26;;;;;;;2.83;2.60;;;;;;;20.52;51.04;97112.69;4977621;28;20208;-26
2023/12/24 01:04:53;;;;;;;3.03;2.80;;;;;;;20.52;51.19;97102.50;4979549;28;20235;-26
2023/12/24 01:07:20;;;;;;;3.07;2.77;;;;;;;20.52;50.85;97089.72;4978691;28;20223;-27
2023/12/24 01:09:46;;;;;;;2.87;2.67;;;;;;;20.51;51.11;97100.72;4981560;28;20584;-26
2023/12/24 01:12:13;;;;;;;2.87;2.57;;;;;;;20.50;50.97;97101.56;4978519;28;20199;-28
2023/12/24 01:14:39;;;;;;;2.63;2.43;;;;;;;20.51;50.95;97103.28;4986091;28;20241;-26
2023/12/24 01:17:06;;;;;;;3.03;2.73;;;;;;;20.49;51.03;97098.16;4977022;28;20200;-29
2023/12/24 01:19:33;;;;;;;3.03;2.83;;;;;;;20.51;50.91;97108.41;4978802;28;20199;-26
2023/12/24 01:21:59;;;;;;;2.57;2.37;;;;;;;20.51;50.94;97103.28;4991546;28;20544;-26
2023/12/24 01:24:26;;;;;;;2.60;2.40;;;;;;;20.51;50.95;97109.28;4979655;28;20227;-27
2023/12/24 01:26:53;;;;;;;2.97;2.67;;;;;;;20.51;50.80;97104.16;4976898;28;20243;-28
2023/12/24 01:29:19;;;;;;;2.80;2.60;;;;;;;20.50;50.99;97099.91;4983388;28;20253;-26
2023/12/24 01:31:46;;;;;;;2.53;2.33;;;;;;;20.50;50.94;97107.56;4981091;28;20200;-26
2023/12/24 01:34:13;;;;;;;2.90;2.70;;;;;;;20.52;50.71;97110.16;4980370;28;20226;-33
2023/12/24 01:36:40;;;;;;;2.50;2.30;;;;;;;20.52;51.04;97097.38;4975153;28;20244;-26
2023/12/24 01:39:10;;;;;;;2.60;2.40;;;;;;;20.51;51.01;97096.50;4976873;28;20210;-29
2023/12/24 01:41:36;;;;;;;2.63;2.43;;;;;;;20.52;51.09;97103.31;4971173;28;20206;-26
2023/12/24 01:44:03;;;;;;;2.37;2.17;;;;;;;20.52;51.01;97100.78;4984623;28;20259;-27
2023/12/24 01:46:30;;;;;;;2.40;2.20;;;;;;;20.51;50.59;97095.63;4981621;28;20219;-26
2023/12/24 01:48:56;;;;;;;2.83;2.53;;;;;;;20.50;51.03;97079.47;4957607;28;20287;-26
2023/12/24 01:51:25;;;;;;;2.50;2.30;;;;;;;20.50;50.94;97071.81;4982597;28;20195;-27
2023/12/24 01:53:52;;;;;;;2.27;2.07;;;;;;;20.49;51.11;97080.28;4984649;28;20258;-29
2023/12/24 01:56:19;;;;;;;2.60;2.40;;;;;;;20.50;50.93;97076.91;4986312;28;20196;-26
2023/12/24 01:58:46;;;;;;;2.50;2.30;;;;;;;20.49;50.78;97081.97;4970083;28;20204;-26
2023/12/24 02:01:13;;;;;;;2.63;2.43;;;;;;;20.47;50.88;97071.75;4951025;28;20205;-36
2023/12/24 02:03:39;;;;;;;2.77;2.57;;;;;;;20.50;50.91;97083.69;4967437;28;20234;-29
2023/12/24 02:06:08;;;;;;;2.40;2.20;;;;;;;20.51;50.85;97085.41;4987777;28;20647;-26
2023/12/24 02:08:39;;;;;;;2.40;2.20;;;;;;;20.45;50.73;97069.94;4983965;28;20690;-29
2023/12/24 02:11:05;;;;;;;2.37;2.17;;;;;;;20.50;50.80;97074.38;4987262;28;20293;-26
2023/12/24 02:13:32;;;;;;;2.30;2.10;;;;;;;20.49;50.85;97075.16;4975201;28;20239;-29
2023/12/24 02:15:58;;;;;;;2.70;2.50;;;;;;;20.50;50.95;97074.38;4958827;28;20200;-27
2023/12/24 02:18:25;;;;;;;2.30;2.10;;;;;;;20.51;50.83;97085.41;4961064;28;20659;-26
2023/12/24 02:20:52;;;;;;;2.23;2.10;;;;;;;20.50;50.75;97079.47;4970564;28;20200;-26
2023/12/24 02:23:18;;;;;;;2.57;2.37;;;;;;;20.50;50.82;97071.81;4978695;28;20230;-28
2023/12/24 02:25:45;;;;;;;2.30;2.10;;;;;;;20.49;50.96;97064.97;4976486;28;20208;-27
2023/12/24 02:28:11;;;;;;;2.27;2.10;;;;;;;20.50;50.95;97069.25;4962495;28;20309;-27
2023/12/24 02:30:41;;;;;;;2.40;2.20;;;;;;;20.48;50.99;97062.38;4983314;28;20214;-26
2023/12/24 02:33:08;;;;;;;2.50;2.30;;;;;;;20.50;50.79;97071.81;4957792;28;20748;-27
2023/12/24 02:35:36;;;;;;;2.90;2.70;;;;;;;20.50;50.84;97069.25;4970946;28;20597;-30
2023/12/24 02:38:03;;;;;;;2.33;2.13;;;;;;;20.49;50.86;97071.78;4985547;28;20210;-30
2023/12/24 02:40:29;;;;;;;2.30;2.10;;;;;;;20.49;50.79;97075.16;4977293;28;20607;-26
2023/12/24 02:42:56;;;;;;;2.30;2.10;;;;;;;20.51;50.76;97072.66;4978920;28;20254;-26
2023/12/24 02:45:22;;;;;;;2.40;2.20;;;;;;;20.26;50.74;97034.56;4989877;28;20663;-26
2023/12/24 02:47:49;;;;;;;2.00;1.90;;;;;;;20.39;50.95;97050.25;4976660;28;20660;-32
2023/12/24 02:50:18;;;;;;;2.30;2.10;;;;;;;20.48;50.79;97073.44;4964636;28;20287;-27
2023/12/24 02:52:46;;;;;;;2.53;2.33;;;;;;;20.47;50.67;97068.31;4977606;28;20227;-27
2023/12/24 02:55:12;;;;;;;2.30;2.10;;;;;;;20.49;50.66;97071.78;4984872;28;20199;-26
2023/12/24 02:57:39;;;;;;;2.20;2.00;;;;;;;20.49;50.66;97066.66;4986520;28;20204;-26
2023/12/24 03:00:08;;;;;;;2.30;2.10;;;;;;;20.50;50.73;97059.06;4976153;28;20286;-26
2023/12/24 03:02:35;;;;;;;2.20;2.00;;;;;;;20.51;50.54;97053.09;4973959;28;20288;-26
2023/12/24 03:05:02;;;;;;;2.00;1.90;;;;;;;20.51;50.73;97059.91;4977768;28;20819;-26
2023/12/24 03:07:28;;;;;;;2.40;2.20;;;;;;;20.51;50.71;97047.13;4964800;28;20220;-26
2023/12/24 03:09:55;;;;;;;2.00;1.90;;;;;;;20.50;50.79;97053.94;4972635;28;20610;-29
2023/12/24 03:12:22;;;;;;;2.47;2.27;;;;;;;20.50;50.53;97064.16;4990020;28;20207;-27
2023/12/24 03:14:48;;;;;;;2.10;2.00;;;;;;;20.51;50.75;97070.09;4974016;28;20207;-28
2023/12/24 03:17:15;;;;;;;2.10;2.00;;;;;;;20.50;50.75;97059.06;4968320;28;20416;-27
2023/12/24 03:19:41;;;;;;;2.20;2.00;;;;;;;20.51;50.93;97087.97;4981223;28;20306;-26
2023/12/24 03:22:08;;;;;;;2.20;2.00;;;;;;;20.51;50.65;97095.63;4981570;28;20252;-26
2023/12/24 03:24:34;;;;;;;2.00;1.90;;;;;;;20.51;50.61;97093.06;4976312;28;20274;-26
2023/12/24 03:27:01;;;;;;;2.20;2.07;;;;;;;20.51;50.75;97096.50;4983437;28;20208;-26
2023/12/24 03:29:28;;;;;;;2.33;2.13;;;;;;;20.50;50.38;97092.25;4972501;28;20703;-26
2023/12/24 03:31:54;;;;;;;2.40;2.20;;;;;;;20.46;50.73;97067.44;4982205;28;20665;-26
2023/12/24 03:34:21;;;;;;;2.13;2.03;;;;;;;20.51;50.85;97070.09;4978079;28;20251;-33
2023/12/24 03:36:48;;;;;;;2.00;1.90;;;;;;;20.50;50.70;97074.38;4970147;28;20575;-26
2023/12/24 03:39:14;;;;;;;2.10;2.00;;;;;;;20.51;50.51;97080.31;4979036;28;20200;-26
2023/12/24 03:41:41;;;;;;;2.10;1.90;;;;;;;20.50;50.83;97079.47;4982275;28;20208;-26
2023/12/24 03:44:08;;;;;;;1.97;1.83;;;;;;;20.49;50.94;97085.38;4983175;28;20668;-27
2023/12/24 03:46:34;;;;;;;2.20;1.87;;;;;;;20.47;50.64;97074.28;4979071;28;20622;-26
2023/12/24 03:49:01;;;;;;;2.30;2.10;;;;;;;20.50;50.56;97084.56;4979195;28;20287;-26
2023/12/24 03:51:27;;;;;;;2.07;1.80;;;;;;;20.51;50.56;97095.63;4979361;28;20200;-26
2023/12/24 03:53:54;;;;;;;2.20;2.00;;;;;;;20.50;50.49;97092.25;4975468;28;20255;-27
2023/12/24 03:56:21;;;;;;;2.30;2.10;;;;;;;20.51;50.80;97093.06;4976645;28;20311;-27
2023/12/24 03:58:47;;;;;;;2.20;2.00;;;;;;;20.51;50.70;97093.94;4971199;28;20630;-26
2023/12/24 04:01:14;;;;;;;2.20;2.00;;;;;;;20.51;50.45;97082.88;4973964;28;20210;-28
2023/12/24 04:03:41;;;;;;;2.23;2.03;;;;;;;20.50;50.60;97088.81;4972614;28;20287;-26
2023/12/24 04:06:13;;;;;;;2.27;2.10;;;;;;;20.51;50.82;97093.94;4977972;28;20648;-26
2023/12/24 04:08:40;;;;;;;2.20;2.00;;;;;;;20.51;50.61;97099.06;4976887;28;20230;-26
2023/12/24 04:11:12;;;;;;;1.93;1.83;;;;;;;20.52;50.57;97102.50;4976254;28;20218;-28
2023/12/24 04:13:39;;;;;;;2.10;2.00;;;;;;;20.51;50.76;97101.59;4981812;28;20230;-26
2023/12/24 04:16:06;;;;;;;2.17;2.03;;;;;;;20.51;50.60;97096.50;4979239;28;20203;-26
2023/12/24 04:18:33;;;;;;;1.67;1.57;;;;;;;20.51;50.56;97109.28;4976584;28;20235;-26
2023/12/24 04:20:59;;;;;;;2.10;2.00;;;;;;;20.42;50.45;97097.94;4980284;28;20203;-26
2023/12/24 04:23:26;;;;;;;2.03;1.83;;;;;;;20.51;50.43;97098.19;4978792;28;20223;-26
2023/12/24 04:25:53;;;;;;;2.03;1.93;;;;;;;20.50;50.76;97101.56;4966161;28;20207;-26
2023/12/24 04:28:19;;;;;;;2.37;2.17;;;;;;;20.50;50.53;97116.88;4986033;28;20257;-28
2023/12/24 04:30:46;;;;;;;2.40;2.20;;;;;;;20.51;50.80;97108.41;4985286;28;20650;-26
2023/12/24 04:33:13;;;;;;;1.97;1.87;;;;;;;20.50;50.43;97101.56;4984665;28;20222;-26
2023/12/24 04:35:40;;;;;;;1.90;1.80;;;;;;;20.50;50.50;97094.78;4986678;28;20233;-27
2023/12/24 04:38:07;;;;;;;2.50;2.30;;;;;;;20.50;50.41;97088.81;4973406;28;20200;-26
2023/12/24 04:40:33;;;;;;;1.70;1.60;;;;;;;20.51;50.30;97095.63;4985894;28;20736;-26
2023/12/24 04:43:00;;;;;;;1.90;1.80;;;;;;;20.51;50.43;97083.75;4977482;28;20230;-27
2023/12/24 04:45:26;;;;;;;2.20;2.00;;;;;;;20.50;50.40;97092.25;4989533;28;20210;-26
2023/12/24 04:47:56;;;;;;;2.00;1.90;;;;;;;20.52;50.34;97092.28;4984364;28;20234;-26
2023/12/24 04:50:22;;;;;;;1.93;1.83;;;;;;;20.52;50.44;97092.28;4980685;28;20199;-29
2023/12/24 04:52:49;;;;;;;1.77;1.67;;;;;;;20.52;50.68;97102.50;4980430;28;20227;-26
2023/12/24 04:55:16;;;;;;;1.93;1.83;;;;;;;20.52;50.57;97093.13;4972724;28;20235;-26
2023/12/24 04:57:42;;;;;;;1.90;1.80;;;;;;;20.52;50.63;97100.78;4978974;28;20204;-28
2023/12/24 05:00:10;;;;;;;1.70;1.60;;;;;;;20.51;50.75;97099.06;4980423;28;20199;-26
2023/12/24 05:02:37;;;;;;;1.90;1.80;;;;;;;20.52;50.40;97090.56;4978082;28;20773;-26
2023/12/24 05:05:04;;;;;;;1.73;1.63;;;;;;;20.52;50.49;97099.94;4965485;28;20258;-26
2023/12/24 05:07:31;;;;;;;2.00;1.90;;;;;;;20.51;50.62;97088.84;4971598;28;20571;-28
2023/12/24 05:09:57;;;;;;;1.90;1.80;;;;;;;20.53;50.56;97089.75;4981235;28;20220;-27
2023/12/24 05:12:24;;;;;;;2.07;1.90;;;;;;;20.52;50.61;97089.72;4977886;28;20250;-26
2023/12/24 05:14:50;;;;;;;1.70;1.60;;;;;;;20.51;50.62;97080.31;4981077;28;20645;-26
2023/12/24 05:17:17;;;;;;;1.90;1.80;;;;;;;20.51;50.45;97078.63;4972952;28;20729;-27
2023/12/24 05:19:44;;;;;;;1.80;1.70;;;;;;;20.50;50.59;97071.81;4967709;28;20288;-26
2023/12/24 05:22:10;;;;;;;1.83;1.73;;;;;;;20.51;50.46;97082.88;4981781;28;20199;-26
2023/12/24 05:24:37;;;;;;;1.70;1.60;;;;;;;20.50;50.36;97078.59;4968202;28;20283;-26
2023/12/24 05:27:03;;;;;;;1.50;1.40;;;;;;;20.51;50.42;97072.66;4973422;28;20654;-28
2023/12/24 05:29:30;;;;;;;1.80;1.70;;;;;;;20.51;50.50;97062.44;4965477;28;20286;-26
2023/12/24 05:31:57;;;;;;;1.73;1.63;;;;;;;20.51;50.27;97060.78;4971414;28;20203;-26
2023/12/24 05:34:24;;;;;;;1.67;1.57;;;;;;;20.52;50.38;97076.97;4976521;28;20220;-26
2023/12/24 05:36:51;;;;;;;1.73;1.63;;;;;;;20.51;50.25;97081.19;4968088;28;20203;-26
2023/12/24 05:39:17;;;;;;;1.80;1.70;;;;;;;20.51;50.61;97083.75;4980253;28;20199;-26
2023/12/24 05:41:44;;;;;;;1.73;1.63;;;;;;;20.51;50.44;97095.63;4976370;28;20207;-29
2023/12/24 05:44:11;;;;;;;1.80;1.70;;;;;;;20.52;50.49;97095.66;4981719;28;20274;-26
2023/12/24 05:46:37;;;;;;;1.73;1.63;;;;;;;20.52;50.49;97102.50;4979226;28;20212;-26
2023/12/24 05:49:04;;;;;;;1.70;1.60;;;;;;;20.52;50.23;97111.00;4976751;28;20753;-29
2023/12/24 05:51:31;;;;;;;1.80;1.70;;;;;;;20.53;50.46;97116.97;4981411;28;20235;-28
2023/12/24 05:53:57;;;;;;;1.60;1.50;;;;;;;20.53;50.42;97096.53;4975051;28;20290;-26
2023/12/24 05:56:24;;;;;;;1.70;1.60;;;;;;;20.51;49.72;97087.97;4984023;28;20680;-27
2023/12/24 05:58:51;;;;;;;1.73;1.63;;;;;;;20.51;50.40;97087.97;4989157;28;20245;-26
2023/12/24 06:01:18;;;;;;;1.80;1.70;;;;;;;20.51;50.32;97078.63;4977853;28;20200;-26
2023/12/24 06:03:44;;;;;;;1.90;1.80;;;;;;;20.50;50.49;97070.94;4976304;28;20269;-26
2023/12/24 06:06:11;;;;;;;1.60;1.50;;;;;;;20.49;50.29;97057.31;4980743;28;20677;-29
2023/12/24 06:08:38;;;;;;;1.60;1.50;;;;;;;20.49;50.53;97053.91;4984185;28;20228;-28
2023/12/24 06:11:05;;;;;;;1.73;1.63;;;;;;;20.48;50.37;97053.03;4979207;28;20207;-28
2023/12/24 06:13:32;;;;;;;1.67;1.57;;;;;;;20.48;50.34;97052.16;4965327;28;20291;-28
2023/12/24 06:15:58;;;;;;;1.77;1.67;;;;;;;20.47;50.31;97046.22;4980565;28;20314;-26
2023/12/24 06:18:25;;;;;;;1.60;1.50;;;;;;;20.50;50.25;97050.53;4972334;28;20227;-26
2023/12/24 06:20:52;;;;;;;1.73;1.63;;;;;;;20.50;50.28;97061.59;4976986;28;20204;-35
2023/12/24 06:23:18;;;;;;;1.83;1.73;;;;;;;20.51;50.13;97057.34;4971230;28;20231;-26
2023/12/24 06:25:45;;;;;;;1.70;1.60;;;;;;;20.51;50.05;97059.91;4969797;28;20255;-26
2023/12/24 06:28:11;;;;;;;1.90;1.80;;;;;;;20.50;50.40;97069.25;4975176;28;20196;-26
2023/12/24 06:30:39;;;;;;;1.60;1.50;;;;;;;20.51;50.28;97068.44;4976339;28;20203;-28
2023/12/24 06:33:05;;;;;;;1.60;1.50;;;;;;;20.51;50.08;97052.22;4982386;28;20273;-27
2023/12/24 06:35:32;;;;;;;2.23;1.60;;;;;;;20.52;50.25;97051.44;4969397;28;20204;-29
2023/12/24 06:37:59;;;;;;;1.60;1.50;;;;;;;20.52;50.29;97052.28;4980320;28;20200;-29
2023/12/24 06:40:25;;;;;;;1.70;1.60;;;;;;;20.53;50.11;97048.03;4972166;28;20203;-28
2023/12/24 06:42:52;;;;;;;1.77;1.67;;;;;;;20.54;50.08;97048.09;4974527;28;20682;-26
2023/12/24 06:45:19;;;;;;;1.70;1.60;;;;;;;20.54;50.31;97042.13;4975859;28;20663;-26
2023/12/24 06:47:45;;;;;;;1.47;1.37;;;;;;;20.54;50.31;97039.59;4972822;28;20659;-26
2023/12/24 06:50:12;;;;;;;1.60;1.50;;;;;;;20.53;49.86;97036.16;4970727;28;20217;-26
2023/12/24 06:52:39;;;;;;;1.50;1.40;;;;;;;20.53;49.91;97036.16;4971729;28;20227;-30
2023/12/24 06:55:06;;;;;;;1.70;1.60;;;;;;;20.49;50.37;97021.56;4972819;28;20290;-26
2023/12/24 06:57:32;;;;;;;1.73;1.63;;;;;;;20.52;50.28;97042.06;4971352;28;20569;-26
2023/12/24 06:59:59;;;;;;;1.70;1.60;;;;;;;20.52;50.20;97042.06;4970613;28;20204;-27
2023/12/24 07:02:25;;;;;;;1.80;1.70;;;;;;;20.52;50.52;97038.66;4974808;28;20254;-27
2023/12/24 07:04:52;;;;;;;1.60;1.50;;;;;;;20.53;50.14;97035.28;4972759;28;20216;-26
2023/12/24 07:07:19;;;;;;;1.40;1.30;;;;;;;20.52;50.13;97026.75;4973473;28;20199;-29
2023/12/24 07:09:45;;;;;;;1.57;1.47;;;;;;;20.53;50.30;97025.06;4972818;28;20706;-29
2023/12/24 07:12:13;;;;;;;1.70;1.60;;;;;;;20.52;49.91;97019.09;4974046;28;20227;-26
2023/12/24 07:14:39;;;;;;;1.40;1.30;;;;;;;20.52;50.04;97031.84;4975422;28;20747;-31
2023/12/24 07:17:06;;;;;;;1.40;1.30;;;;;;;20.52;50.09;97018.25;4974566;28;20733;-27
2023/12/24 07:19:33;;;;;;;1.50;1.40;;;;;;;20.52;50.13;97021.66;4969201;28;20204;-26
2023/12/24 07:22:00;;;;;;;1.50;1.40;;;;;;;20.51;50.15;97024.16;4968293;28;20200;-27
2023/12/24 07:24:26;;;;;;;1.40;1.30;;;;;;;20.52;49.98;97029.31;4980556;28;20266;-28
2023/12/24 07:26:53;;;;;;;1.33;1.30;;;;;;;20.50;50.01;97019.88;4978129;28;20204;-26
2023/12/24 07:29:20;;;;;;;1.37;1.27;;;;;;;20.50;50.07;97030.97;4968553;28;20219;-26
2023/12/24 07:31:47;;;;;;;1.50;1.40;;;;;;;20.49;50.29;97047.09;4981500;28;20211;-27
2023/12/24 07:34:14;;;;;;;1.50;1.40;;;;;;;20.48;50.26;97042.81;4974786;28;20226;-26
2023/12/24 07:36:42;;;;;;;1.30;1.30;;;;;;;20.48;50.02;97045.38;4972462;28;20210;-29
2023/12/24 07:39:08;;;;;;;1.33;1.23;;;;;;;20.48;49.94;97045.38;4970380;28;20204;-26
2023/12/24 07:41:35;;;;;;;1.87;1.50;;;;;;;20.50;50.11;97037.75;4971006;28;20204;-29
2023/12/24 07:44:01;;;;;;;2.23;1.50;;;;;;;20.50;50.16;97043.75;4964561;28;20707;-26
2023/12/24 07:46:28;;;;;;;1.53;1.43;;;;;;;20.49;49.86;97039.44;4959517;28;21335;-26
2023/12/24 07:48:55;;;;;;;4.10;1.60;;;;;;;20.50;50.07;97043.75;4968375;28;20215;-26
2023/12/24 07:51:21;;;;;;;1.67;1.33;;;;;;;20.50;49.93;97037.75;4970218;28;20203;-28
2023/12/24 07:53:48;;;;;;;1.60;1.50;;;;;;;20.51;49.84;97044.59;4979551;28;20258;-30
2023/12/24 07:56:14;;;;;;;1.67;1.57;;;;;;;20.51;49.85;97044.59;4972387;28;20250;-27
2023/12/24 07:58:41;;;;;;;4.10;1.80;;;;;;;20.51;49.84;97042.91;4979770;28;20213;-26
2023/12/24 08:01:08;;;;;;;2.73;1.80;;;;;;;20.48;49.76;97042.81;4966101;28;20235;-29
2023/12/24 08:03:34;;;;;;;2.43;1.60;;;;;;;20.52;50.06;97043.78;4973927;28;20232;-26
2023/12/24 08:06:01;;;;;;;9.17;1.80;;;;;;;20.52;49.88;97049.72;4974920;28;20199;-26
2023/12/24 08:08:29;;;;;;;2.60;1.73;;;;;;;20.53;49.81;97048.91;4975240;28;20266;-26
2023/12/24 08:10:55;;;;;;;4.53;2.00;;;;;;;20.52;49.91;97042.06;4973658;28;20234;-26
2023/12/24 08:13:25;;;;;;;3.73;1.50;;;;;;;20.54;49.98;97042.97;4974724;28;20840;-26
2023/12/24 08:15:51;;;;;;;4.37;1.57;;;;;;;20.54;49.85;97035.31;4984886;28;20266;-26
2023/12/24 08:18:18;;;;;;;6.47;1.73;;;;;;;20.55;50.21;97026.88;4974553;28;20745;-26
2023/12/24 08:20:45;;;;;;;3.17;1.63;;;;;;;20.56;49.95;97023.47;4969598;28;20291;-28
2023/12/24 08:23:12;;;;;;;4.13;1.70;;;;;;;20.56;50.06;97030.25;4965526;28;20225;-26
2023/12/24 08:25:38;;;;;;;3.70;1.60;;;;;;;20.56;50.31;97027.69;4970476;28;20584;-38
2023/12/24 08:28:06;;;;;;;2.80;1.50;;;;;;;20.57;49.88;97032.00;4977878;28;20235;-27
2023/12/24 08:30:32;;;;;;;2.47;1.77;;;;;;;20.57;50.12;97037.09;4969669;28;20222;-28
2023/12/24 08:32:59;;;;;;;3.53;1.80;;;;;;;20.57;49.92;97034.56;4971932;28;20219;-28
2023/12/24 08:35:26;;;;;;;1.60;1.50;;;;;;;20.57;49.86;97021.78;4969669;28;20196;-26
2023/12/24 08:37:53;;;;;;;2.43;1.50;;;;;;;20.57;50.10;97029.44;4973867;28;20207;-27
2023/12/24 08:40:19;;;;;;;2.83;1.60;;;;;;;20.57;49.95;97021.78;4967536;28;20444;-28
2023/12/24 08:42:46;;;;;;;2.80;1.50;;;;;;;20.57;49.88;97016.69;4962823;28;20252;-26
2023/12/24 08:45:13;;;;;;;4.93;1.60;;;;;;;20.58;49.76;97020.97;4969294;28;20220;-26
2023/12/24 08:47:39;;;;;;;3.37;1.50;;;;;;;20.57;49.76;97030.28;4970507;28;20527;-28
2023/12/24 08:50:06;;;;;;;3.97;1.47;;;;;;;20.57;49.97;97027.75;4969175;28;20615;-26
2023/12/24 08:52:33;;;;;;;1.87;1.37;;;;;;;20.57;49.91;97024.34;4967889;28;20228;-26
2023/12/24 08:55:00;;;;;;;1.83;1.53;;;;;;;20.57;49.74;97017.53;4964238;28;20212;-41
2023/12/24 08:57:26;;;;;;;1.93;1.53;;;;;;;20.56;49.93;97028.56;4969802;28;20305;-28
2023/12/24 08:59:53;;;;;;;3.90;1.80;;;;;;;20.55;49.98;97024.31;4970057;28;20297;-26
2023/12/24 09:02:19;;;;;;;1.50;1.40;;;;;;;20.56;49.91;97014.94;4964551;28;20207;-26
2023/12/24 09:04:47;;;;;;;1.97;1.57;;;;;;;20.54;50.07;97025.09;4976373;28;20679;-26
2023/12/24 09:07:16;;;;;;;1.80;1.53;;;;;;;20.55;50.02;97024.31;4967634;28;20570;-26
2023/12/24 09:09:43;;;;;;;2.87;1.63;;;;;;;20.56;50.12;97027.69;4969215;28;20223;-26
2023/12/24 09:12:09;;;;;;;4.60;1.60;;;;;;;20.55;49.88;97026.88;4973460;28;20283;-26
2023/12/24 09:14:36;;;;;;;3.37;1.70;;;;;;;20.56;50.15;97027.69;4968821;28;20630;-27
2023/12/24 09:17:03;;;;;;;2.30;1.60;;;;;;;20.56;50.15;97027.69;4982693;28;20207;-28
2023/12/24 09:19:29;;;;;;;5.13;1.53;;;;;;;20.56;49.93;97040.47;4969557;28;20508;-29
2023/12/24 09:21:56;;;;;;;4.37;2.00;;;;;;;20.54;48.67;97032.78;4970368;28;20257;-35
2023/12/24 09:24:23;;;;;;;2.50;1.77;;;;;;;20.54;48.14;97037.03;4975990;28;20230;-27
2023/12/24 09:26:49;;;;;;;2.77;1.60;;;;;;;20.53;48.30;97025.94;4975379;28;20585;-27
2023/12/24 09:29:20;;;;;;;2.20;1.57;;;;;;;20.54;48.42;97031.94;4970030;28;20266;-26
2023/12/24 09:31:48;;;;;;;2.30;1.90;;;;;;;20.54;48.73;97037.88;4973764;28;20286;-26
2023/12/24 09:34:14;;;;;;;3.13;1.87;;;;;;;20.53;48.86;97041.25;4976365;28;20261;-26
2023/12/24 09:36:41;;;;;;;2.37;1.77;;;;;;;20.53;48.85;97035.28;4979562;28;20204;-28
2023/12/24 09:39:07;;;;;;;2.27;1.80;;;;;;;20.53;48.99;97046.38;4978093;28;20745;-26
2023/12/24 09:41:34;;;;;;;2.30;1.60;;;;;;;20.53;49.37;97045.50;4973646;28;20286;-27
2023/12/24 09:44:01;;;;;;;2.40;1.90;;;;;;;20.52;47.10;97047.16;4980198;28;20356;-27
2023/12/24 09:46:27;;;;;;;2.87;2.13;;;;;;;20.49;45.62;97051.34;4970883;28;20674;-28
2023/12/24 09:48:54;;;;;;;4.07;1.90;;;;;;;20.46;44.66;97046.16;4969702;28;20208;-28
2023/12/24 09:51:21;;;;;;;4.80;1.57;;;;;;;20.42;45.43;97042.66;4969913;28;20368;-26
2023/12/24 09:53:49;;;;;;;2.77;1.60;;;;;;;20.44;46.75;97047.81;4969924;28;20251;-26
2023/12/24 09:56:15;;;;;;;1.80;1.70;;;;;;;20.44;47.34;97040.16;4970089;28;20242;-26
2023/12/24 09:58:44;;;;;;;1.70;1.60;;;;;;;20.43;47.69;97046.09;4970158;28;20214;-26
2023/12/24 10:01:10;;;;;;;3.17;1.80;;;;;;;20.43;48.27;97046.94;4973683;28;20204;-28
2023/12/24 10:03:37;;;;;;;1.97;1.50;;;;;;;20.43;48.25;97044.38;4977429;28;20232;-27
2023/12/24 10:06:07;;;;;;;3.07;1.70;;;;;;;20.43;48.26;97041.84;4973515;28;20208;-26
2023/12/24 10:08:34;;;;;;;2.70;1.60;;;;;;;20.41;48.53;97030.75;4971931;28;20292;-26
2023/12/24 10:11:17;;;;;;;1.47;1.30;;;;;;;20.43;48.68;97031.63;4976849;28;20220;-27
2023/12/24 10:13:44;;;;;;;1.90;1.80;;;;;;;20.43;48.59;97018.84;4975173;28;20235;-26
2023/12/24 10:16:10;;;;;;;2.20;1.77;;;;;;;20.44;48.55;97014.63;4977219;28;20710;-26
2023/12/24 10:18:50;;;;;;;4.13;2.07;;;;;;;20.44;48.41;97012.94;4975199;28;20233;-26
2023/12/24 10:21:18;;;;;;;2.67;2.10;;;;;;;20.44;48.86;97009.53;4970086;28;20196;-26
2023/12/24 10:23:45;;;;;;;2.17;1.40;;;;;;;20.44;48.81;97005.28;4978410;28;20232;-26
2023/12/24 10:26:12;;;;;;;2.97;1.70;;;;;;;20.45;48.79;96999.34;4971250;28;20204;-29
2023/12/24 10:28:46;;;;;;;2.53;1.80;;;;;;;20.44;48.73;96997.63;4986853;28;20257;-27
2023/12/24 10:31:13;;;;;;;2.13;1.53;;;;;;;20.45;48.96;96993.38;4981608;28;20223;-26
2023/12/24 10:33:40;;;;;;;2.67;1.43;;;;;;;20.46;48.85;96988.31;4971517;28;20249;-26
2023/12/24 10:36:07;;;;;;;1.60;1.50;;;;;;;20.47;49.00;96990.06;4974587;28;20200;-31
2023/12/24 10:38:34;;;;;;;2.97;1.80;;;;;;;20.48;48.92;96988.34;4972222;28;20203;-26
2023/12/24 10:41:01;;;;;;;1.83;1.57;;;;;;;20.48;49.08;96986.66;4968374;28;20283;-27
2023/12/24 10:43:28;;;;;;;1.83;1.50;;;;;;;20.48;49.09;96981.56;4969206;28;20240;-26
2023/12/24 10:45:55;;;;;;;1.30;1.20;;;;;;;20.48;49.07;96981.56;4975606;28;20294;-27
2023/12/24 10:48:22;;;;;;;1.70;1.50;;;;;;;20.49;49.22;96980.72;4973117;28;20196;-26
2023/12/24 10:50:50;;;;;;;2.50;1.60;;;;;;;20.50;49.14;96979.91;4976051;28;20220;-28
2023/12/24 10:53:16;;;;;;;1.83;1.53;;;;;;;20.51;49.24;96991.84;4966368;28;20895;-26
2023/12/24 10:55:55;;;;;;;2.37;1.60;;;;;;;20.52;49.15;96979.97;4977879;28;20262;-28
2023/12/24 10:58:51;;;;;;;13.23;1.97;;;;;;;20.53;48.90;96958.69;4972494;28;20233;-26
2023/12/24 11:01:17;;;;;;;5.17;1.77;;;;;;;20.55;48.99;96968.16;4969818;28;20204;-27
2023/12/24 11:03:48;;;;;;;4.07;1.77;;;;;;;20.55;48.84;96960.50;4971265;28;20653;-27
2023/12/24 11:06:36;;;;;;;2.13;1.53;;;;;;;20.57;49.17;96955.41;4975234;28;20210;-27
2023/12/24 11:09:15;;;;;;;5.13;1.97;;;;;;;20.56;49.32;96958.78;4973101;28;20258;-26
2023/12/24 11:11:54;;;;;;;2.93;1.70;;;;;;;20.56;49.28;96944.34;4966945;28;20231;-26
2023/12/24 11:14:40;;;;;;;2.53;1.70;;;;;;;20.56;49.27;96946.88;4965401;28;20234;-26
2023/12/24 11:17:08;;;;;;;2.53;1.43;;;;;;;20.55;49.23;96940.06;4966675;28;20742;-30
2023/12/24 11:19:37;;;;;;;2.33;1.67;;;;;;;20.55;49.43;96942.63;4970053;28;20204;-26
2023/12/24 11:22:13;;;;;;;8.00;1.60;;;;;;;20.56;49.49;96939.22;4975113;28;20748;-27
2023/12/24 11:24:42;;;;;;;1.90;1.53;;;;;;;20.56;49.60;96936.69;4964179;28;20243;-26
2023/12/24 11:27:12;;;;;;;1.73;1.50;;;;;;;20.55;49.36;96922.19;4966115;28;20211;-26
2023/12/24 11:29:48;;;;;;;1.30;1.20;;;;;;;20.56;49.49;96923.03;4964594;28;20647;-29
2023/12/24 11:32:25;;;;;;;2.90;1.50;;;;;;;20.56;49.56;96923.91;4973884;28;20208;-26
2023/12/24 11:34:53;;;;;;;1.63;1.40;;;;;;;20.55;49.33;96914.53;4973898;28;20431;-26